sensor_id;sensor_type;location;lat;lon;timestamp;pressure;altitude;pressure_sealevel;temperature;humidity
53940;BME280;39850;43.324;21.916;2022-11-20T00:00:13;984.0;;;11.2;92.0
53940;BME280;39850;43.324;21.916;2022-11-20T00:04:51;984.0;;;11.2;92.0
53940;BME280;39850;43.324;21.916;2022-11-20T00:09:28;984.0;;;11.2;92.0
53940;BME280;39850;43.324;21.916;2022-11-20T00:14:05;985.0;;;10.7;92.0
53940;BME280;39850;43.324;21.916;2022-11-20T00:18:42;985.0;;;10.7;92.0
53940;BME280;39850;43.324;21.916;2022-11-20T00:51:06;984.0;;;10.7;94.0
53940;BME280;39850;43.324;21.916;2022-11-20T00:55:43;984.0;;;10.7;94.0
53940;BME280;39850;43.324;21.916;2022-11-20T01:00:19;984.0;;;10.7;94.0
53940;BME280;39850;43.324;21.916;2022-11-20T01:04:55;984.0;;;10.8;94.0
53940;BME280;39850;43.324;21.916;2022-11-20T01:09:33;984.0;;;10.8;94.0
53940;BME280;39850;43.324;21.916;2022-11-20T01:14:20;984.0;;;10.7;94.0
53940;BME280;39850;43.324;21.916;2022-11-20T01:19:06;984.0;;;10.7;94.0
53940;BME280;39850;43.324;21.916;2022-11-20T01:23:51;984.0;;;10.6;95.0
53940;BME280;39850;43.324;21.916;2022-11-20T01:28:31;984.0;;;10.6;95.0
53940;BME280;39850;43.324;21.916;2022-11-20T01:33:09;984.0;;;10.4;95.0
53940;BME280;39850;43.324;21.916;2022-11-20T01:37:45;984.0;;;10.4;95.0
53940;BME280;39850;43.324;21.916;2022-11-20T02:11:07;984.0;;;10.8;96.0
53940;BME280;39850;43.324;21.916;2022-11-20T02:15:47;984.0;;;10.8;96.0
53940;BME280;39850;43.324;21.916;2022-11-20T02:20:24;984.0;;;10.8;96.0
53940;BME280;39850;43.324;21.916;2022-11-20T02:25:08;984.0;;;10.8;96.0
53940;BME280;39850;43.324;21.916;2022-11-20T02:30:04;984.0;;;10.8;96.0
53940;BME280;39850;43.324;21.916;2022-11-20T02:34:41;984.0;;;10.8;95.0
53940;BME280;39850;43.324;21.916;2022-11-20T02:39:27;984.0;;;10.8;95.0
53940;BME280;39850;43.324;21.916;2022-11-20T02:44:06;984.0;;;10.8;95.0
53940;BME280;39850;43.324;21.916;2022-11-20T02:48:42;984.0;;;10.8;95.0
53940;BME280;39850;43.324;21.916;2022-11-20T02:53:19;984.0;;;10.8;95.0
53940;BME280;39850;43.324;21.916;2022-11-20T02:57:55;984.0;;;10.8;95.0
53940;BME280;39850;43.324;21.916;2022-11-20T03:34:51;985.0;;;10.8;96.0
53940;BME280;39850;43.324;21.916;2022-11-20T03:39:27;985.0;;;10.8;96.0
53940;BME280;39850;43.324;21.916;2022-11-20T03:44:12;985.0;;;10.8;96.0
53940;BME280;39850;43.324;21.916;2022-11-20T03:48:49;985.0;;;10.8;96.0
53940;BME280;39850;43.324;21.916;2022-11-20T03:53:27;985.0;;;10.8;96.0
53940;BME280;39850;43.324;21.916;2022-11-20T03:58:04;985.0;;;10.8;96.0
53940;BME280;39850;43.324;21.916;2022-11-20T04:02:41;985.0;;;10.8;97.0
53940;BME280;39850;43.324;21.916;2022-11-20T04:07:18;985.0;;;10.8;97.0
53940;BME280;39850;43.324;21.916;2022-11-20T04:11:55;985.0;;;10.9;98.0
53940;BME280;39850;43.324;21.916;2022-11-20T04:16:36;985.0;;;10.9;98.0
53940;BME280;39850;43.324;21.916;2022-11-20T04:53:34;985.0;;;10.9;96.0
53940;BME280;39850;43.324;21.916;2022-11-20T04:58:12;985.0;;;10.9;96.0
53940;BME280;39850;43.324;21.916;2022-11-20T05:02:50;985.0;;;10.9;96.0
53940;BME280;39850;43.324;21.916;2022-11-20T05:07:26;985.0;;;10.9;96.0
53940;BME280;39850;43.324;21.916;2022-11-20T05:12:07;985.0;;;10.9;96.0
53940;BME280;39850;43.324;21.916;2022-11-20T05:16:45;985.0;;;10.9;96.0
53940;BME280;39850;43.324;21.916;2022-11-20T05:21:23;984.0;;;10.9;96.0
53940;BME280;39850;43.324;21.916;2022-11-20T05:26:03;984.0;;;10.9;96.0
53940;BME280;39850;43.324;21.916;2022-11-20T05:30:41;984.0;;;10.9;96.0
53940;BME280;39850;43.324;21.916;2022-11-20T05:35:18;984.0;;;10.9;96.0
53940;BME280;39850;43.324;21.916;2022-11-20T05:39:55;984.0;;;10.9;96.0
53940;BME280;39850;43.324;21.916;2022-11-20T06:12:13;985.0;;;10.9;98.0
53940;BME280;39850;43.324;21.916;2022-11-20T06:16:49;985.0;;;10.9;98.0
53940;BME280;39850;43.324;21.916;2022-11-20T06:21:27;985.0;;;10.9;98.0
53940;BME280;39850;43.324;21.916;2022-11-20T06:26:12;985.0;;;10.9;98.0
53940;BME280;39850;43.324;21.916;2022-11-20T06:30:52;985.0;;;10.9;98.0
53940;BME280;39850;43.324;21.916;2022-11-20T06:35:29;985.0;;;10.8;97.0
53940;BME280;39850;43.324;21.916;2022-11-20T06:40:11;985.0;;;10.8;97.0
53940;BME280;39850;43.324;21.916;2022-11-20T06:44:48;985.0;;;10.7;96.0
53940;BME280;39850;43.324;21.916;2022-11-20T06:49:26;985.0;;;10.7;96.0
53940;BME280;39850;43.324;21.916;2022-11-20T06:54:04;985.0;;;10.7;96.0
53940;BME280;39850;43.324;21.916;2022-11-20T06:58:41;985.0;;;10.7;96.0
53940;BME280;39850;43.324;21.916;2022-11-20T07:44:50;985.0;;;10.9;99.0
53940;BME280;39850;43.324;21.916;2022-11-20T07:49:26;985.0;;;10.9;99.0
53940;BME280;39850;43.324;21.916;2022-11-20T07:54:04;985.0;;;11.4;99.0
53940;BME280;39850;43.324;21.916;2022-11-20T07:58:40;985.0;;;11.4;99.0
53940;BME280;39850;43.324;21.916;2022-11-20T08:03:17;985.0;;;11.4;99.0
53940;BME280;39850;43.324;21.916;2022-11-20T08:07:53;985.0;;;11.4;99.0
53940;BME280;39850;43.324;21.916;2022-11-20T08:12:30;985.0;;;11.8;99.0
53940;BME280;39850;43.324;21.916;2022-11-20T08:17:06;985.0;;;11.8;99.0
53940;BME280;39850;43.324;21.916;2022-11-20T08:21:44;985.0;;;11.8;99.0
53940;BME280;39850;43.324;21.916;2022-11-20T08:54:08;986.0;;;11.6;98.0
53940;BME280;39850;43.324;21.916;2022-11-20T08:58:45;986.0;;;11.6;98.0
53940;BME280;39850;43.324;21.916;2022-11-20T09:03:23;986.0;;;11.6;98.0
53940;BME280;39850;43.324;21.916;2022-11-20T09:08:00;986.0;;;11.6;98.0
53940;BME280;39850;43.324;21.916;2022-11-20T09:12:37;986.0;;;11.6;98.0
53940;BME280;39850;43.324;21.916;2022-11-20T09:17:13;986.0;;;11.6;98.0
53940;BME280;39850;43.324;21.916;2022-11-20T09:21:51;986.0;;;11.6;98.0
53940;BME280;39850;43.324;21.916;2022-11-20T09:26:27;986.0;;;11.6;98.0
53940;BME280;39850;43.324;21.916;2022-11-20T09:31:13;986.0;;;11.6;98.0
53940;BME280;39850;43.324;21.916;2022-11-20T09:35:52;986.0;;;11.6;98.0
53940;BME280;39850;43.324;21.916;2022-11-20T09:40:30;986.0;;;11.6;98.0
53940;BME280;39850;43.324;21.916;2022-11-20T10:25:20;985.0;;;11.6;100.0
53940;BME280;39850;43.324;21.916;2022-11-20T10:30:14;985.0;;;11.6;100.0
53940;BME280;39850;43.324;21.916;2022-11-20T10:35:20;985.0;;;11.6;99.0
53940;BME280;39850;43.324;21.916;2022-11-20T10:40:34;985.0;;;11.6;99.0
53940;BME280;39850;43.324;21.916;2022-11-20T10:45:55;985.0;;;11.6;99.0
53940;BME280;39850;43.324;21.916;2022-11-20T10:51:25;985.0;;;11.6;99.0
53940;BME280;39850;43.324;21.916;2022-11-20T10:56:38;985.0;;;11.6;99.0
53940;BME280;39850;43.324;21.916;2022-11-20T11:01:22;985.0;;;11.6;99.0
53940;BME280;39850;43.324;21.916;2022-11-20T11:35:19;985.0;;;12.7;100.0
53940;BME280;39850;43.324;21.916;2022-11-20T11:39:57;985.0;;;12.7;100.0
53940;BME280;39850;43.324;21.916;2022-11-20T11:44:35;985.0;;;12.5;100.0
53940;BME280;39850;43.324;21.916;2022-11-20T11:49:20;985.0;;;12.5;100.0
53940;BME280;39850;43.324;21.916;2022-11-20T11:54:17;985.0;;;12.3;100.0
53940;BME280;39850;43.324;21.916;2022-11-20T11:59:21;985.0;;;12.3;100.0
53940;BME280;39850;43.324;21.916;2022-11-20T12:04:43;985.0;;;12.0;100.0
53940;BME280;39850;43.324;21.916;2022-11-20T12:09:54;985.0;;;12.0;100.0
53940;BME280;39850;43.324;21.916;2022-11-20T12:14:46;985.0;;;11.6;100.0
53940;BME280;39850;43.324;21.916;2022-11-20T12:19:31;985.0;;;11.6;100.0
53940;BME280;39850;43.324;21.916;2022-11-20T13:05:43;985.0;;;12.7;100.0
53940;BME280;39850;43.324;21.916;2022-11-20T13:10:51;985.0;;;12.7;100.0
53940;BME280;39850;43.324;21.916;2022-11-20T13:16:04;984.0;;;12.7;99.0
53940;BME280;39850;43.324;21.916;2022-11-20T13:20:47;984.0;;;12.7;99.0
53940;BME280;39850;43.324;21.916;2022-11-20T13:25:31;984.0;;;12.7;99.0
53940;BME280;39850;43.324;21.916;2022-11-20T13:30:23;984.0;;;12.7;99.0
53940;BME280;39850;43.324;21.916;2022-11-20T13:35:08;984.0;;;12.7;98.0
53940;BME280;39850;43.324;21.916;2022-11-20T13:39:45;984.0;;;12.7;98.0
53940;BME280;39850;43.324;21.916;2022-11-20T14:24:18;984.0;;;11.7;99.0
53940;BME280;39850;43.324;21.916;2022-11-20T14:28:56;984.0;;;11.7;99.0
53940;BME280;39850;43.324;21.916;2022-11-20T14:33:37;984.0;;;11.8;99.0
53940;BME280;39850;43.324;21.916;2022-11-20T14:38:27;984.0;;;11.8;99.0
53940;BME280;39850;43.324;21.916;2022-11-20T14:43:27;984.0;;;11.8;99.0
53940;BME280;39850;43.324;21.916;2022-11-20T14:48:09;984.0;;;11.8;99.0
53940;BME280;39850;43.324;21.916;2022-11-20T14:52:58;984.0;;;11.8;99.0
53940;BME280;39850;43.324;21.916;2022-11-20T14:57:37;984.0;;;12.0;98.0
53940;BME280;39850;43.324;21.916;2022-11-20T15:02:18;984.0;;;12.0;98.0
53940;BME280;39850;43.324;21.916;2022-11-20T15:35:06;984.0;;;11.6;93.0
53940;BME280;39850;43.324;21.916;2022-11-20T15:39:42;984.0;;;11.6;93.0
53940;BME280;39850;43.324;21.916;2022-11-20T15:44:19;984.0;;;11.6;92.0
53940;BME280;39850;43.324;21.916;2022-11-20T15:49:00;984.0;;;11.6;92.0
53940;BME280;39850;43.324;21.916;2022-11-20T15:53:39;984.0;;;11.6;92.0
53940;BME280;39850;43.324;21.916;2022-11-20T15:58:16;984.0;;;11.6;92.0
53940;BME280;39850;43.324;21.916;2022-11-20T16:02:52;984.0;;;11.6;92.0
53940;BME280;39850;43.324;21.916;2022-11-20T16:07:29;984.0;;;11.6;92.0
53940;BME280;39850;43.324;21.916;2022-11-20T16:12:10;984.0;;;11.6;92.0
53940;BME280;39850;43.324;21.916;2022-11-20T16:16:47;984.0;;;11.6;91.0
53940;BME280;39850;43.324;21.916;2022-11-20T16:21:24;984.0;;;11.6;91.0
53940;BME280;39850;43.324;21.916;2022-11-20T17:07:55;983.0;;;11.6;91.0
53940;BME280;39850;43.324;21.916;2022-11-20T17:12:32;983.0;;;11.6;91.0
53940;BME280;39850;43.324;21.916;2022-11-20T17:17:09;983.0;;;11.6;91.0
53940;BME280;39850;43.324;21.916;2022-11-20T17:21:46;983.0;;;11.6;91.0
53940;BME280;39850;43.324;21.916;2022-11-20T17:26:23;983.0;;;11.6;91.0
53940;BME280;39850;43.324;21.916;2022-11-20T17:31:05;983.0;;;11.6;91.0
53940;BME280;39850;43.324;21.916;2022-11-20T17:35:44;983.0;;;11.6;92.0
53940;BME280;39850;43.324;21.916;2022-11-20T17:40:21;983.0;;;11.6;92.0
53940;BME280;39850;43.324;21.916;2022-11-20T18:17:15;983.0;;;11.8;94.0
53940;BME280;39850;43.324;21.916;2022-11-20T18:21:53;983.0;;;11.8;94.0
53940;BME280;39850;43.324;21.916;2022-11-20T18:26:29;983.0;;;11.8;94.0
53940;BME280;39850;43.324;21.916;2022-11-20T18:31:09;983.0;;;11.8;94.0
53940;BME280;39850;43.324;21.916;2022-11-20T18:35:47;983.0;;;12.0;93.0
53940;BME280;39850;43.324;21.916;2022-11-20T18:40:24;983.0;;;12.0;93.0
53940;BME280;39850;43.324;21.916;2022-11-20T18:45:02;983.0;;;12.3;91.0
53940;BME280;39850;43.324;21.916;2022-11-20T18:49:40;983.0;;;12.3;91.0
53940;BME280;39850;43.324;21.916;2022-11-20T18:54:18;983.0;;;12.3;91.0
53940;BME280;39850;43.324;21.916;2022-11-20T18:58:58;983.0;;;12.3;91.0
53940;BME280;39850;43.324;21.916;2022-11-20T19:03:35;983.0;;;12.3;91.0
53940;BME280;39850;43.324;21.916;2022-11-20T19:36:09;984.0;;;9.9;92.0
53940;BME280;39850;43.324;21.916;2022-11-20T19:40:45;984.0;;;9.9;92.0
53940;BME280;39850;43.324;21.916;2022-11-20T19:45:22;984.0;;;9.5;93.0
53940;BME280;39850;43.324;21.916;2022-11-20T19:49:58;984.0;;;9.5;93.0
53940;BME280;39850;43.324;21.916;2022-11-20T19:54:36;984.0;;;9.1;94.0
53940;BME280;39850;43.324;21.916;2022-11-20T19:59:14;984.0;;;9.1;94.0
53940;BME280;39850;43.324;21.916;2022-11-20T20:03:54;984.0;;;9.1;94.0
53940;BME280;39850;43.324;21.916;2022-11-20T20:08:33;984.0;;;8.6;96.0
53940;BME280;39850;43.324;21.916;2022-11-20T20:13:10;984.0;;;8.6;96.0
53940;BME280;39850;43.324;21.916;2022-11-20T20:17:47;984.0;;;8.1;97.0
53940;BME280;39850;43.324;21.916;2022-11-20T20:22:23;984.0;;;8.1;97.0
53940;BME280;39850;43.324;21.916;2022-11-20T21:08:39;983.0;;;8.2;93.0
53940;BME280;39850;43.324;21.916;2022-11-20T21:13:17;983.0;;;8.2;93.0
53940;BME280;39850;43.324;21.916;2022-11-20T21:17:53;983.0;;;8.1;93.0
53940;BME280;39850;43.324;21.916;2022-11-20T21:22:30;983.0;;;8.1;93.0
53940;BME280;39850;43.324;21.916;2022-11-20T21:27:06;983.0;;;8.1;93.0
53940;BME280;39850;43.324;21.916;2022-11-20T21:31:44;983.0;;;8.1;93.0
53940;BME280;39850;43.324;21.916;2022-11-20T21:36:28;983.0;;;8.1;94.0
53940;BME280;39850;43.324;21.916;2022-11-20T21:41:14;983.0;;;8.1;94.0
53940;BME280;39850;43.324;21.916;2022-11-20T22:18:11;983.0;;;7.6;93.0
53940;BME280;39850;43.324;21.916;2022-11-20T22:22:48;983.0;;;7.6;93.0
53940;BME280;39850;43.324;21.916;2022-11-20T22:27:24;983.0;;;7.6;93.0
53940;BME280;39850;43.324;21.916;2022-11-20T22:32:00;983.0;;;7.6;93.0
53940;BME280;39850;43.324;21.916;2022-11-20T22:36:40;983.0;;;7.6;93.0
53940;BME280;39850;43.324;21.916;2022-11-20T22:41:26;983.0;;;7.6;93.0
53940;BME280;39850;43.324;21.916;2022-11-20T23:46:15;981.0;;;8.1;90.0
53940;BME280;39850;43.324;21.916;2022-11-20T23:50:52;981.0;;;8.1;90.0
53940;BME280;39850;43.324;21.916;2022-11-20T23:55:30;981.0;;;8.0;90.0
